Time;durP1;ratioP1;P1;durP2;ratioP2;P2;SDS_P1;SDS_P2;PMS_P1;PMS_P2;Temp;Humidity;BMP_temperature;BMP_pressure;BME280_temperature;BME280_humidity;BME280_pressure;Samples;Min_cycle;Max_cycle;Signal;HPM_P1;HPM_P2
2023/10/06 00:01:42;;;;;;;25.40;23.40;;;;;;;;;;5119115;28;20515;-81
2023/10/06 00:04:09;;;;;;;25.30;23.10;;;;;;;;;;5118497;28;20445;-81
2023/10/06 00:06:37;;;;;;;25.53;23.60;;;;;;;;;;5120040;28;20464;-81
2023/10/06 00:09:06;;;;;;;24.83;23.07;;;;;;;;;;5119405;28;20437;-81
2023/10/06 00:11:37;;;;;;;25.40;23.63;;;;;;;;;;5118510;28;20468;-80
2023/10/06 00:14:15;;;;;;;24.50;22.57;;;;;;;;;;5119354;27;20501;-81
2023/10/06 00:16:43;;;;;;;24.70;22.80;;;;;;;;;;5119978;28;20431;-81
2023/10/06 00:19:25;;;;;;;25.10;23.40;;;;;;;;;;5119694;28;20447;-81
2023/10/06 00:22:02;;;;;;;25.23;23.80;;;;;;;;;;5118944;28;20480;-81
2023/10/06 00:24:31;;;;;;;25.23;23.60;;;;;;;;;;5118613;28;21012;-81
2023/10/06 00:26:58;;;;;;;25.37;23.80;;;;;;;;;;5119264;28;20435;-81
2023/10/06 00:29:27;;;;;;;25.03;23.30;;;;;;;;;;5119735;28;20481;-80
2023/10/06 00:32:01;;;;;;;25.63;23.23;;;;;;;;;;5118891;28;20853;-80
2023/10/06 00:34:30;;;;;;;25.10;23.20;;;;;;;;;;5118264;28;20558;-81
2023/10/06 00:36:57;;;;;;;24.23;22.40;;;;;;;;;;5118401;28;21321;-81
2023/10/06 00:39:29;;;;;;;24.43;22.80;;;;;;;;;;5119163;28;21029;-81
2023/10/06 00:42:04;;;;;;;24.00;22.13;;;;;;;;;;5119239;28;20450;-80
2023/10/06 00:44:31;;;;;;;23.97;22.17;;;;;;;;;;5118878;28;20430;-80
2023/10/06 00:47:05;;;;;;;24.33;22.60;;;;;;;;;;5118545;28;20468;-81
2023/10/06 00:49:32;;;;;;;22.87;21.37;;;;;;;;;;5119120;28;20525;-81
2023/10/06 00:52:00;;;;;;;24.50;22.80;;;;;;;;;;5118762;28;20415;-81
2023/10/06 00:54:28;;;;;;;24.80;22.90;;;;;;;;;;5117681;28;20553;-81
2023/10/06 00:56:57;;;;;;;24.27;22.53;;;;;;;;;;5118397;28;20439;-81
2023/10/06 00:59:24;;;;;;;24.07;22.30;;;;;;;;;;5118570;28;20440;-81
2023/10/06 01:01:52;;;;;;;23.97;21.93;;;;;;;;;;5118492;28;20843;-81
2023/10/06 01:04:24;;;;;;;24.20;22.60;;;;;;;;;;5118338;28;20422;-81
2023/10/06 01:06:54;;;;;;;24.87;23.27;;;;;;;;;;5118839;28;20439;-81
2023/10/06 01:12:25;;;;;;;24.10;22.23;;;;;;;;;;5107754;28;20973;-81
2023/10/06 01:15:05;;;;;;;24.60;22.60;;;;;;;;;;5096877;28;20427;-81
2023/10/06 01:17:32;;;;;;;25.23;23.10;;;;;;;;;;5098296;28;20432;-80
2023/10/06 01:20:03;;;;;;;24.03;22.53;;;;;;;;;;5097980;28;20427;-81
2023/10/06 01:22:41;;;;;;;23.00;21.60;;;;;;;;;;5097911;28;20472;-81
2023/10/06 01:25:13;;;;;;;23.93;22.00;;;;;;;;;;5096931;28;20498;-81
2023/10/06 01:27:43;;;;;;;24.17;22.20;;;;;;;;;;5097614;28;20464;-81
2023/10/06 01:30:17;;;;;;;23.57;21.90;;;;;;;;;;5096996;28;20925;-82
2023/10/06 01:32:44;;;;;;;23.73;22.00;;;;;;;;;;5097059;28;20474;-81
2023/10/06 01:35:12;;;;;;;25.10;23.03;;;;;;;;;;5099910;28;20445;-81
2023/10/06 01:37:42;;;;;;;24.77;22.13;;;;;;;;;;5101338;28;20486;-80
2023/10/06 01:40:18;;;;;;;23.77;22.07;;;;;;;;;;5100998;28;20429;-81
2023/10/06 01:42:48;;;;;;;24.73;22.50;;;;;;;;;;5100841;28;20492;-81
2023/10/06 01:45:17;;;;;;;24.63;22.50;;;;;;;;;;5100317;28;20475;-82
2023/10/06 01:47:46;;;;;;;24.17;21.97;;;;;;;;;;5100693;28;20486;-82
2023/10/06 01:50:13;;;;;;;23.33;21.40;;;;;;;;;;5100757;28;20445;-81
2023/10/06 01:52:40;;;;;;;23.47;22.07;;;;;;;;;;5100903;28;20453;-82
2023/10/06 01:55:21;;;;;;;24.33;22.40;;;;;;;;;;5100076;28;20423;-81
2023/10/06 01:57:49;;;;;;;23.47;21.87;;;;;;;;;;5100029;28;20481;-82
2023/10/06 02:00:22;;;;;;;24.10;22.30;;;;;;;;;;5104573;28;20460;-82
2023/10/06 02:02:50;;;;;;;23.70;22.10;;;;;;;;;;5100207;28;20522;-81
2023/10/06 02:05:17;;;;;;;24.10;22.23;;;;;;;;;;5099401;28;20461;-81
2023/10/06 02:07:45;;;;;;;24.57;23.00;;;;;;;;;;5115658;28;20963;-82
2023/10/06 02:10:15;;;;;;;24.60;23.00;;;;;;;;;;5121255;28;20962;-80
2023/10/06 02:12:42;;;;;;;24.37;22.50;;;;;;;;;;5121188;28;20444;-81
2023/10/06 02:15:11;;;;;;;24.77;23.20;;;;;;;;;;5120022;28;20452;-81
2023/10/06 02:17:40;;;;;;;26.13;23.73;;;;;;;;;;5120851;28;20476;-80
2023/10/06 02:20:12;;;;;;;24.10;22.50;;;;;;;;;;5121053;28;21011;-81
2023/10/06 02:22:39;;;;;;;23.20;21.70;;;;;;;;;;5121440;28;20514;-82
2023/10/06 02:25:10;;;;;;;23.43;21.80;;;;;;;;;;5120427;27;20418;-82
2023/10/06 02:27:44;;;;;;;24.77;22.90;;;;;;;;;;5105384;28;20472;-81
2023/10/06 02:30:12;;;;;;;25.00;23.10;;;;;;;;;;5100371;28;20448;-81
2023/10/06 02:32:39;;;;;;;23.90;22.00;;;;;;;;;;5100151;28;20459;-82
2023/10/06 02:35:07;;;;;;;24.30;22.50;;;;;;;;;;5099014;28;20468;-81
2023/10/06 02:37:34;;;;;;;25.33;23.43;;;;;;;;;;5099928;28;20458;-82
2023/10/06 02:40:10;;;;;;;25.43;23.67;;;;;;;;;;5100038;28;20444;-80
2023/10/06 02:42:43;;;;;;;26.37;23.93;;;;;;;;;;5099440;28;20736;-82
2023/10/06 02:45:16;;;;;;;24.30;22.60;;;;;;;;;;5098468;28;20910;-81
2023/10/06 02:47:43;;;;;;;25.93;24.00;;;;;;;;;;5100484;28;20510;-81
2023/10/06 02:50:18;;;;;;;25.50;23.40;;;;;;;;;;5100403;28;20393;-81
2023/10/06 02:52:46;;;;;;;25.07;22.77;;;;;;;;;;5099998;28;20458;-82
2023/10/06 02:55:19;;;;;;;24.90;22.80;;;;;;;;;;5098969;28;20975;-82
2023/10/06 02:57:51;;;;;;;25.50;23.57;;;;;;;;;;5099812;28;20447;-81
2023/10/06 03:03:11;;;;;;;24.03;22.23;;;;;;;;;;5119600;28;20580;-83
2023/10/06 03:05:41;;;;;;;24.93;23.33;;;;;;;;;;5117803;28;20446;-81
2023/10/06 03:08:09;;;;;;;24.30;22.40;;;;;;;;;;5120335;28;20529;-81
2023/10/06 03:10:42;;;;;;;23.63;22.00;;;;;;;;;;5119060;28;20407;-81
2023/10/06 03:13:13;;;;;;;23.93;22.10;;;;;;;;;;5119563;28;20812;-81
2023/10/06 03:15:45;;;;;;;24.17;22.10;;;;;;;;;;5118806;28;20888;-81
2023/10/06 03:18:13;;;;;;;24.10;22.30;;;;;;;;;;5118785;28;20471;-81
2023/10/06 03:20:46;;;;;;;25.13;23.20;;;;;;;;;;5118241;28;20407;-81
2023/10/06 03:23:24;;;;;;;24.47;22.53;;;;;;;;;;5118679;28;20492;-82
2023/10/06 03:25:53;;;;;;;24.97;23.07;;;;;;;;;;5117899;28;20521;-82
2023/10/06 03:28:28;;;;;;;24.60;22.27;;;;;;;;;;5117294;27;20460;-82
2023/10/06 03:30:56;;;;;;;23.63;22.13;;;;;;;;;;5117875;28;20447;-82
2023/10/06 03:33:23;;;;;;;24.83;23.10;;;;;;;;;;5117914;28;20430;-82
2023/10/06 03:35:54;;;;;;;23.87;22.17;;;;;;;;;;5117502;28;20483;-82
2023/10/06 03:38:35;;;;;;;25.80;23.90;;;;;;;;;;5118462;28;20485;-81
2023/10/06 03:41:18;;;;;;;26.27;23.80;;;;;;;;;;5118010;28;20447;-83
2023/10/06 03:43:50;;;;;;;25.03;23.13;;;;;;;;;;5117858;28;20468;-81
2023/10/06 03:46:18;;;;;;;25.13;23.23;;;;;;;;;;5117521;28;20471;-81
2023/10/06 03:48:48;;;;;;;24.30;22.70;;;;;;;;;;5117654;28;20468;-81
2023/10/06 03:51:15;;;;;;;24.63;23.10;;;;;;;;;;5117877;28;20419;-82
2023/10/06 03:53:44;;;;;;;25.37;23.40;;;;;;;;;;5117016;28;20439;-82
2023/10/06 03:56:12;;;;;;;26.07;24.30;;;;;;;;;;5116556;28;20478;-80
2023/10/06 03:58:40;;;;;;;25.13;23.43;;;;;;;;;;5108944;28;20455;-81
2023/10/06 04:01:09;;;;;;;28.27;25.77;;;;;;;;;;5097027;28;20448;-82
2023/10/06 04:03:36;;;;;;;26.60;24.53;;;;;;;;;;5096298;28;20495;-82
2023/10/06 04:06:04;;;;;;;26.87;24.77;;;;;;;;;;5097854;28;20445;-82
2023/10/06 04:08:31;;;;;;;24.27;22.70;;;;;;;;;;5097168;28;20491;-82
2023/10/06 04:10:58;;;;;;;25.27;23.60;;;;;;;;;;5098195;28;20469;-82
2023/10/06 04:13:25;;;;;;;26.33;24.23;;;;;;;;;;5117292;28;20458;-81
2023/10/06 04:15:53;;;;;;;25.40;23.57;;;;;;;;;;5109259;28;20435;-81
2023/10/06 04:18:22;;;;;;;26.23;24.17;;;;;;;;;;5115876;28;20430;-81
2023/10/06 04:20:50;;;;;;;25.67;23.63;;;;;;;;;;5117685;28;21358;-81
2023/10/06 04:23:18;;;;;;;26.10;23.90;;;;;;;;;;5118005;28;20503;-81
2023/10/06 04:25:46;;;;;;;25.43;23.83;;;;;;;;;;5117029;28;20511;-81
2023/10/06 04:28:15;;;;;;;26.47;24.33;;;;;;;;;;5117170;28;20475;-81
2023/10/06 04:30:43;;;;;;;27.03;24.70;;;;;;;;;;5117580;28;20453;-81
2023/10/06 04:33:10;;;;;;;25.27;23.50;;;;;;;;;;5117767;28;20471;-82
2023/10/06 04:35:40;;;;;;;26.80;24.23;;;;;;;;;;5117041;28;20474;-82
2023/10/06 04:38:10;;;;;;;27.27;24.93;;;;;;;;;;5117743;28;21358;-81
2023/10/06 04:40:37;;;;;;;25.73;23.97;;;;;;;;;;5116970;28;20445;-81
2023/10/06 04:43:04;;;;;;;25.13;23.33;;;;;;;;;;5117346;28;21307;-81
2023/10/06 04:45:32;;;;;;;28.07;25.63;;;;;;;;;;5115957;28;20426;-82
2023/10/06 04:48:00;;;;;;;27.50;24.63;;;;;;;;;;5117197;28;20510;-81
2023/10/06 04:50:28;;;;;;;24.40;22.50;;;;;;;;;;5116684;28;20448;-82
2023/10/06 04:52:57;;;;;;;27.30;24.70;;;;;;;;;;5116939;28;20421;-81
2023/10/06 04:55:24;;;;;;;25.00;23.10;;;;;;;;;;5115452;28;20414;-81
2023/10/06 04:57:51;;;;;;;25.30;23.30;;;;;;;;;;5116625;28;20446;-82
2023/10/06 05:00:20;;;;;;;25.80;23.70;;;;;;;;;;5108970;28;20446;-81
2023/10/06 05:02:47;;;;;;;25.83;23.57;;;;;;;;;;5097109;28;20528;-81
2023/10/06 05:05:19;;;;;;;29.60;24.00;;;;;;;;;;5095959;28;20435;-81
2023/10/06 05:07:46;;;;;;;24.60;22.63;;;;;;;;;;5096980;28;20434;-81
2023/10/06 05:10:16;;;;;;;24.73;22.97;;;;;;;;;;5100474;28;20522;-81
2023/10/06 05:12:44;;;;;;;23.57;21.80;;;;;;;;;;5100561;28;20412;-81
2023/10/06 05:15:17;;;;;;;24.63;22.00;;;;;;;;;;5099728;28;20452;-82
2023/10/06 05:17:44;;;;;;;24.03;22.30;;;;;;;;;;5100263;28;20905;-82
2023/10/06 05:20:19;;;;;;;22.73;21.13;;;;;;;;;;5100631;28;20438;-81
2023/10/06 05:22:47;;;;;;;24.90;22.87;;;;;;;;;;5099844;28;20563;-82
2023/10/06 05:25:17;;;;;;;24.57;22.70;;;;;;;;;;5099571;28;20903;-81
2023/10/06 05:27:44;;;;;;;25.00;22.60;;;;;;;;;;5099647;28;20491;-82
2023/10/06 05:30:13;;;;;;;23.93;22.00;;;;;;;;;;5100596;28;20484;-81
2023/10/06 05:32:42;;;;;;;24.47;22.40;;;;;;;;;;5099929;28;20444;-81
2023/10/06 05:35:10;;;;;;;24.30;22.33;;;;;;;;;;5099981;28;20449;-82
2023/10/06 05:37:37;;;;;;;24.37;22.80;;;;;;;;;;5099721;28;20443;-82
2023/10/06 05:40:04;;;;;;;25.20;23.43;;;;;;;;;;5100062;28;20419;-81
2023/10/06 05:42:33;;;;;;;24.87;22.60;;;;;;;;;;5099379;28;20510;-81
2023/10/06 05:45:12;;;;;;;24.43;22.67;;;;;;;;;;5099086;28;20502;-81
2023/10/06 05:47:40;;;;;;;23.13;21.33;;;;;;;;;;5098785;28;20491;-82
2023/10/06 05:50:08;;;;;;;24.77;22.90;;;;;;;;;;5098964;28;20928;-82
2023/10/06 05:52:38;;;;;;;24.50;22.43;;;;;;;;;;5099309;28;20457;-80
2023/10/06 05:55:09;;;;;;;24.63;22.67;;;;;;;;;;5100601;28;20429;-80
2023/10/06 05:57:39;;;;;;;24.10;22.13;;;;;;;;;;5100405;28;20499;-80
2023/10/06 06:00:07;;;;;;;25.77;23.70;;;;;;;;;;5118392;28;20456;-80
2023/10/06 06:02:37;;;;;;;25.90;23.77;;;;;;;;;;5121096;28;20965;-80
2023/10/06 06:05:04;;;;;;;25.63;23.50;;;;;;;;;;5119927;28;20548;-80
2023/10/06 06:07:34;;;;;;;25.27;23.13;;;;;;;;;;5120673;28;20438;-80
2023/10/06 06:10:04;;;;;;;23.97;22.33;;;;;;;;;;5120934;28;20928;-80
2023/10/06 06:12:31;;;;;;;23.97;22.37;;;;;;;;;;5119622;27;20463;-80
2023/10/06 06:14:59;;;;;;;23.30;21.13;;;;;;;;;;5119647;28;20446;-80
2023/10/06 06:17:28;;;;;;;23.37;21.67;;;;;;;;;;5120452;28;20835;-80
2023/10/06 06:19:56;;;;;;;22.80;21.00;;;;;;;;;;5120393;28;20528;-79
2023/10/06 06:22:24;;;;;;;24.60;22.37;;;;;;;;;;5120353;28;20435;-80
2023/10/06 06:24:51;;;;;;;24.30;22.13;;;;;;;;;;5119962;28;20507;-79
2023/10/06 06:27:18;;;;;;;23.20;21.37;;;;;;;;;;5120991;28;20434;-80
2023/10/06 06:29:46;;;;;;;23.53;21.83;;;;;;;;;;5120379;28;20423;-79
2023/10/06 06:32:15;;;;;;;22.30;20.80;;;;;;;;;;5120242;28;20455;-80
2023/10/06 06:34:42;;;;;;;23.63;21.77;;;;;;;;;;5119018;28;20442;-81
2023/10/06 06:37:10;;;;;;;24.83;22.30;;;;;;;;;;5120159;28;20472;-80
2023/10/06 06:39:37;;;;;;;22.77;21.03;;;;;;;;;;5119902;28;20468;-79
2023/10/06 06:42:05;;;;;;;22.97;21.33;;;;;;;;;;5119626;28;20429;-80
2023/10/06 06:44:34;;;;;;;22.93;21.03;;;;;;;;;;5118784;28;20455;-80
2023/10/06 06:47:01;;;;;;;24.10;22.10;;;;;;;;;;5119485;28;20545;-79
2023/10/06 06:49:30;;;;;;;22.87;20.90;;;;;;;;;;5119770;28;20494;-79
2023/10/06 06:51:58;;;;;;;23.60;21.80;;;;;;;;;;5119627;28;20524;-80
2023/10/06 06:54:25;;;;;;;24.50;22.00;;;;;;;;;;5109579;28;20450;-80
2023/10/06 06:56:53;;;;;;;22.33;20.57;;;;;;;;;;5102820;28;21001;-79
2023/10/06 06:59:20;;;;;;;22.93;21.00;;;;;;;;;;5099333;28;20944;-79
2023/10/06 07:01:48;;;;;;;21.17;19.53;;;;;;;;;;5099486;28;20519;-79
2023/10/06 07:04:16;;;;;;;20.03;18.83;;;;;;;;;;5098854;28;20903;-80
2023/10/06 07:06:45;;;;;;;21.67;20.10;;;;;;;;;;5098850;28;20450;-79
2023/10/06 07:09:13;;;;;;;21.83;20.23;;;;;;;;;;5099682;28;20449;-82
2023/10/06 07:11:41;;;;;;;21.13;19.50;;;;;;;;;;5105502;28;20444;-82
2023/10/06 07:14:08;;;;;;;18.83;17.77;;;;;;;;;;5107658;28;21033;-80
2023/10/06 07:16:36;;;;;;;21.47;19.73;;;;;;;;;;5102572;28;20482;-79
2023/10/06 07:19:03;;;;;;;21.13;19.63;;;;;;;;;;5107336;28;20444;-79
2023/10/06 07:21:30;;;;;;;21.07;19.73;;;;;;;;;;5108147;27;21080;-80
2023/10/06 07:23:59;;;;;;;21.03;19.73;;;;;;;;;;5099027;28;20443;-80
2023/10/06 07:26:26;;;;;;;22.47;20.73;;;;;;;;;;5099555;28;20440;-80
2023/10/06 07:28:55;;;;;;;20.50;18.90;;;;;;;;;;5099301;28;20436;-80
2023/10/06 07:31:24;;;;;;;22.73;21.00;;;;;;;;;;5097314;28;20456;-79
2023/10/06 07:33:52;;;;;;;20.70;19.33;;;;;;;;;;5105792;28;20966;-80
2023/10/06 07:36:19;;;;;;;21.70;20.13;;;;;;;;;;5118608;28;20492;-80
2023/10/06 07:38:48;;;;;;;20.60;19.20;;;;;;;;;;5118195;28;20444;-80
2023/10/06 07:41:19;;;;;;;20.70;19.50;;;;;;;;;;5118801;28;20444;-80
2023/10/06 07:43:48;;;;;;;21.70;20.20;;;;;;;;;;5119420;28;20487;-80
2023/10/06 07:46:16;;;;;;;21.77;20.13;;;;;;;;;;5119877;28;20471;-79
2023/10/06 07:48:44;;;;;;;22.07;20.40;;;;;;;;;;5118895;28;20468;-79
2023/10/06 07:51:13;;;;;;;20.23;18.90;;;;;;;;;;5117590;28;20455;-80
2023/10/06 07:53:40;;;;;;;20.93;19.47;;;;;;;;;;5119700;28;20459;-82
2023/10/06 07:56:07;;;;;;;20.93;19.47;;;;;;;;;;5118865;28;20433;-79
2023/10/06 07:58:37;;;;;;;20.73;19.33;;;;;;;;;;5113657;28;20439;-81
2023/10/06 08:01:07;;;;;;;21.30;19.70;;;;;;;;;;5108228;28;20453;-80
2023/10/06 08:03:35;;;;;;;21.90;20.17;;;;;;;;;;5097986;28;20446;-80
2023/10/06 08:06:03;;;;;;;20.43;18.70;;;;;;;;;;5097325;28;20455;-80
2023/10/06 08:08:30;;;;;;;20.40;18.90;;;;;;;;;;5098678;28;20460;-80
2023/10/06 08:10:57;;;;;;;21.10;19.60;;;;;;;;;;5098272;28;20444;-80
2023/10/06 08:13:25;;;;;;;20.97;19.47;;;;;;;;;;5099067;28;20473;-79
2023/10/06 08:15:53;;;;;;;21.00;19.67;;;;;;;;;;5097374;28;21006;-80
2023/10/06 08:18:21;;;;;;;21.77;19.80;;;;;;;;;;5098493;28;20800;-80
2023/10/06 08:20:49;;;;;;;21.17;19.73;;;;;;;;;;5098374;28;20464;-80
2023/10/06 08:23:16;;;;;;;22.70;20.90;;;;;;;;;;5097902;28;20949;-80
2023/10/06 08:25:44;;;;;;;20.97;19.50;;;;;;;;;;5097495;28;20491;-80
2023/10/06 08:28:11;;;;;;;21.13;19.53;;;;;;;;;;5097964;28;20488;-80
2023/10/06 08:30:38;;;;;;;20.90;19.70;;;;;;;;;;5098537;28;20814;-80
2023/10/06 08:33:09;;;;;;;21.73;20.30;;;;;;;;;;5098056;28;20625;-81
2023/10/06 08:35:36;;;;;;;21.60;19.93;;;;;;;;;;5097513;28;21300;-80
2023/10/06 08:38:07;;;;;;;19.30;18.17;;;;;;;;;;5097792;28;20493;-80
2023/10/06 08:40:36;;;;;;;21.40;19.40;;;;;;;;;;5097604;28;20486;-80
2023/10/06 08:43:06;;;;;;;21.40;20.10;;;;;;;;;;5097785;28;20449;-80
2023/10/06 08:45:35;;;;;;;21.40;19.57;;;;;;;;;;5100692;28;20522;-79
2023/10/06 08:48:02;;;;;;;19.67;18.50;;;;;;;;;;5101306;28;20471;-80
2023/10/06 08:50:31;;;;;;;20.57;19.27;;;;;;;;;;5100922;28;21256;-79
2023/10/06 08:52:59;;;;;;;20.40;19.07;;;;;;;;;;5099638;28;20449;-80
2023/10/06 08:55:27;;;;;;;20.20;18.90;;;;;;;;;;5100358;28;20440;-79
2023/10/06 08:57:55;;;;;;;20.13;18.93;;;;;;;;;;5100683;28;20464;-80
2023/10/06 09:00:24;;;;;;;20.80;19.20;;;;;;;;;;5101622;28;20426;-80
2023/10/06 09:02:52;;;;;;;21.20;19.70;;;;;;;;;;5100960;28;20452;-81
2023/10/06 09:05:19;;;;;;;19.60;18.50;;;;;;;;;;5100813;28;20458;-80
2023/10/06 09:08:00;;;;;;;19.30;18.10;;;;;;;;;;5100699;28;20485;-80
2023/10/06 09:10:30;;;;;;;20.00;18.63;;;;;;;;;;5100741;28;20460;-76
2023/10/06 09:13:00;;;;;;;20.40;19.10;;;;;;;;;;5096941;28;20468;-80
2023/10/06 09:15:28;;;;;;;23.10;21.20;;;;;;;;;;5100005;28;20448;-80
2023/10/06 09:17:56;;;;;;;19.90;18.70;;;;;;;;;;5100718;28;21071;-80
2023/10/06 09:20:31;;;;;;;20.03;18.70;;;;;;;;;;5101012;28;20420;-81
2023/10/06 09:23:00;;;;;;;20.40;19.00;;;;;;;;;;5100372;28;20472;-79
2023/10/06 09:25:29;;;;;;;21.10;19.60;;;;;;;;;;5100479;28;20489;-81
2023/10/06 09:28:14;;;;;;;21.53;19.93;;;;;;;;;;5101052;28;20451;-80
2023/10/06 09:30:49;;;;;;;19.00;17.90;;;;;;;;;;5101171;28;20421;-79
2023/10/06 09:33:17;;;;;;;21.10;19.80;;;;;;;;;;5100149;28;20459;-80
2023/10/06 09:35:44;;;;;;;20.47;19.30;;;;;;;;;;5100422;28;20437;-79
2023/10/06 09:38:14;;;;;;;19.77;18.47;;;;;;;;;;5101513;28;21237;-80
2023/10/06 09:40:42;;;;;;;19.17;17.87;;;;;;;;;;5100841;28;21248;-80
2023/10/06 09:43:12;;;;;;;20.93;19.53;;;;;;;;;;5100546;28;20483;-81
2023/10/06 09:45:41;;;;;;;19.90;18.40;;;;;;;;;;5100009;28;20512;-80
2023/10/06 09:48:13;;;;;;;20.80;19.50;;;;;;;;;;5099886;28;20997;-80
2023/10/06 09:50:42;;;;;;;21.63;19.67;;;;;;;;;;5100405;28;20445;-80
2023/10/06 09:53:12;;;;;;;22.70;20.80;;;;;;;;;;5100155;28;20447;-80
2023/10/06 09:55:41;;;;;;;21.87;20.47;;;;;;;;;;5099938;28;21113;-80
2023/10/06 09:58:09;;;;;;;21.10;19.67;;;;;;;;;;5120071;28;20889;-81
2023/10/06 10:00:39;;;;;;;20.23;18.97;;;;;;;;;;5120482;28;20783;-80
2023/10/06 10:03:06;;;;;;;20.60;19.40;;;;;;;;;;5120206;28;20432;-80
2023/10/06 10:05:34;;;;;;;21.53;19.90;;;;;;;;;;5120024;27;20548;-79
2023/10/06 10:08:02;;;;;;;21.33;19.90;;;;;;;;;;5120475;28;20517;-80
2023/10/06 10:10:29;;;;;;;21.70;20.03;;;;;;;;;;5120402;28;20444;-81
2023/10/06 10:13:12;;;;;;;20.70;19.30;;;;;;;;;;5120576;27;20444;-80
2023/10/06 10:15:48;;;;;;;21.80;20.07;;;;;;;;;;5106167;28;20451;-81
2023/10/06 10:18:19;;;;;;;22.03;20.63;;;;;;;;;;5120209;28;20441;-80
2023/10/06 10:20:46;;;;;;;21.53;20.23;;;;;;;;;;5120215;28;20398;-80
2023/10/06 10:23:15;;;;;;;21.03;19.77;;;;;;;;;;5119970;28;20474;-80
2023/10/06 10:25:44;;;;;;;22.53;20.80;;;;;;;;;;5120145;28;20897;-80
2023/10/06 10:28:15;;;;;;;22.90;21.10;;;;;;;;;;5120991;28;20536;-80
2023/10/06 10:30:50;;;;;;;22.07;20.43;;;;;;;;;;5121490;28;20483;-80
2023/10/06 10:33:21;;;;;;;22.50;21.00;;;;;;;;;;5121307;28;20430;-81
2023/10/06 10:36:07;;;;;;;22.73;21.20;;;;;;;;;;5121102;28;20475;-80
2023/10/06 10:38:34;;;;;;;21.70;20.40;;;;;;;;;;5121296;28;20946;-81
2023/10/06 10:41:01;;;;;;;22.97;21.40;;;;;;;;;;5121877;27;20515;-81
2023/10/06 10:43:28;;;;;;;22.63;21.30;;;;;;;;;;5120691;27;20471;-80
2023/10/06 10:45:59;;;;;;;22.97;21.43;;;;;;;;;;5120926;28;20458;-80
2023/10/06 10:48:35;;;;;;;23.93;22.23;;;;;;;;;;5121274;28;20460;-80
2023/10/06 10:51:10;;;;;;;23.80;22.20;;;;;;;;;;5121034;28;20436;-79
2023/10/06 10:53:38;;;;;;;24.27;22.57;;;;;;;;;;5122088;28;20441;-80
2023/10/06 10:56:06;;;;;;;22.60;21.07;;;;;;;;;;5120412;28;20470;-81
2023/10/06 10:58:53;;;;;;;23.73;21.63;;;;;;;;;;5121866;28;20535;-80
2023/10/06 11:01:29;;;;;;;22.60;21.20;;;;;;;;;;5121036;28;20443;-81
2023/10/06 11:04:18;;;;;;;21.83;20.53;;;;;;;;;;5120776;28;20440;-81
2023/10/06 11:06:45;;;;;;;21.50;20.10;;;;;;;;;;5119138;28;20487;-81
2023/10/06 11:09:25;;;;;;;24.10;22.40;;;;;;;;;;5119923;28;20503;-81
2023/10/06 11:11:53;;;;;;;22.80;21.30;;;;;;;;;;5119624;28;20479;-80
2023/10/06 11:14:22;;;;;;;23.10;21.30;;;;;;;;;;5115747;28;20447;-80
2023/10/06 11:16:50;;;;;;;22.03;20.57;;;;;;;;;;5115830;28;20511;-81
2023/10/06 11:19:18;;;;;;;22.47;20.97;;;;;;;;;;5115844;28;20460;-81
2023/10/06 11:21:47;;;;;;;21.97;20.57;;;;;;;;;;5115282;28;20446;-80
2023/10/06 11:24:24;;;;;;;22.17;20.67;;;;;;;;;;5115808;28;20439;-80
2023/10/06 11:26:52;;;;;;;22.37;20.83;;;;;;;;;;5116047;28;20487;-82
2023/10/06 11:29:28;;;;;;;22.63;21.10;;;;;;;;;;5115441;28;20418;-80
2023/10/06 11:31:57;;;;;;;23.40;21.80;;;;;;;;;;5115730;28;20528;-80
2023/10/06 11:34:25;;;;;;;23.33;21.73;;;;;;;;;;5115120;28;20451;-80
2023/10/06 11:36:54;;;;;;;24.40;22.20;;;;;;;;;;5115423;28;20435;-80
2023/10/06 11:39:23;;;;;;;22.97;21.27;;;;;;;;;;5115332;28;20775;-77
2023/10/06 11:41:50;;;;;;;23.13;21.07;;;;;;;;;;5112386;28;20844;-76
2023/10/06 11:44:19;;;;;;;23.30;21.67;;;;;;;;;;5111296;28;20422;-76
2023/10/06 11:46:49;;;;;;;23.90;22.10;;;;;;;;;;5111847;28;20544;-75
2023/10/06 11:49:19;;;;;;;22.40;21.00;;;;;;;;;;5111899;28;20467;-75
2023/10/06 11:51:46;;;;;;;23.70;22.07;;;;;;;;;;5111589;28;20487;-76
2023/10/06 11:54:14;;;;;;;23.73;21.93;;;;;;;;;;5110087;28;20480;-75
2023/10/06 11:56:49;;;;;;;24.83;23.03;;;;;;;;;;5111861;28;20434;-75
2023/10/06 11:59:24;;;;;;;23.80;21.97;;;;;;;;;;5111417;28;20483;-75
2023/10/06 12:01:51;;;;;;;23.60;21.73;;;;;;;;;;5109825;28;20931;-76
2023/10/06 12:04:30;;;;;;;24.30;22.40;;;;;;;;;;5111271;28;20428;-76
2023/10/06 12:06:57;;;;;;;23.50;21.90;;;;;;;;;;5111878;28;20548;-75
2023/10/06 12:09:24;;;;;;;24.83;23.13;;;;;;;;;;5111421;28;20443;-75
2023/10/06 12:11:53;;;;;;;24.40;22.60;;;;;;;;;;5111720;28;20440;-74
2023/10/06 12:14:20;;;;;;;24.27;22.47;;;;;;;;;;5111193;28;20546;-74
2023/10/06 12:16:48;;;;;;;24.30;22.33;;;;;;;;;;5103682;28;20583;-75
2023/10/06 12:19:15;;;;;;;23.73;22.10;;;;;;;;;;5090927;28;20964;-75
2023/10/06 12:21:44;;;;;;;23.83;22.17;;;;;;;;;;5091419;28;20448;-75
2023/10/06 12:24:11;;;;;;;24.10;22.57;;;;;;;;;;5090976;28;20489;-75
2023/10/06 12:26:39;;;;;;;24.80;22.60;;;;;;;;;;5091600;28;20545;-75
2023/10/06 12:29:06;;;;;;;22.90;21.40;;;;;;;;;;5091380;28;20531;-74
2023/10/06 12:31:34;;;;;;;22.13;20.73;;;;;;;;;;5091215;28;20448;-74
2023/10/06 12:34:03;;;;;;;22.90;21.40;;;;;;;;;;5090485;28;20449;-75
2023/10/06 12:36:34;;;;;;;23.20;21.50;;;;;;;;;;5091111;28;20805;-75
2023/10/06 12:39:04;;;;;;;24.30;22.40;;;;;;;;;;5091190;28;20516;-76
2023/10/06 12:41:31;;;;;;;24.03;22.20;;;;;;;;;;5091370;28;20769;-76
2023/10/06 12:44:04;;;;;;;23.80;22.00;;;;;;;;;;5090749;28;20517;-74
2023/10/06 12:46:33;;;;;;;23.30;21.53;;;;;;;;;;5091027;28;20534;-75
2023/10/06 12:49:00;;;;;;;23.20;21.00;;;;;;;;;;5091010;28;20572;-75
2023/10/06 12:51:27;;;;;;;22.40;21.00;;;;;;;;;;5092876;28;20480;-77
2023/10/06 12:53:55;;;;;;;22.83;21.33;;;;;;;;;;5110968;28;20459;-73
2023/10/06 12:56:24;;;;;;;23.43;21.43;;;;;;;;;;5106989;28;20476;-73
2023/10/06 12:58:51;;;;;;;24.73;22.27;;;;;;;;;;5091046;28;20455;-74
2023/10/06 13:01:18;;;;;;;22.93;21.13;;;;;;;;;;5091097;28;20452;-75
2023/10/06 13:03:45;;;;;;;23.47;21.67;;;;;;;;;;5090916;28;20449;-75
2023/10/06 13:06:13;;;;;;;24.03;22.33;;;;;;;;;;5090850;28;20570;-75
2023/10/06 13:08:40;;;;;;;25.20;23.47;;;;;;;;;;5091069;28;20457;-75
2023/10/06 13:11:10;;;;;;;23.60;21.50;;;;;;;;;;5090961;28;20444;-74
2023/10/06 13:13:38;;;;;;;22.83;21.37;;;;;;;;;;5090986;28;20445;-74
2023/10/06 13:16:08;;;;;;;23.80;21.60;;;;;;;;;;5090427;28;20445;-75
2023/10/06 13:18:36;;;;;;;23.40;21.90;;;;;;;;;;5110573;28;20491;-76
2023/10/06 13:21:06;;;;;;;23.30;21.53;;;;;;;;;;5111458;28;20551;-75
2023/10/06 13:23:33;;;;;;;23.37;21.17;;;;;;;;;;5110928;28;20915;-74
2023/10/06 13:26:01;;;;;;;23.77;21.97;;;;;;;;;;5110321;28;20536;-76
2023/10/06 13:28:29;;;;;;;23.27;21.37;;;;;;;;;;5110893;28;20451;-74
2023/10/06 13:30:57;;;;;;;23.67;21.93;;;;;;;;;;5114206;28;20458;-75
2023/10/06 13:33:25;;;;;;;23.90;21.80;;;;;;;;;;5115207;28;20414;-75
2023/10/06 13:35:52;;;;;;;23.60;22.00;;;;;;;;;;5114343;28;20443;-76
2023/10/06 13:38:19;;;;;;;22.17;20.77;;;;;;;;;;5114827;28;20588;-74
2023/10/06 13:40:46;;;;;;;23.47;21.67;;;;;;;;;;5113072;28;20455;-74
2023/10/06 13:43:14;;;;;;;22.90;21.30;;;;;;;;;;5114530;28;20450;-74
2023/10/06 13:45:43;;;;;;;22.80;21.20;;;;;;;;;;5098686;28;20496;-75
2023/10/06 13:48:12;;;;;;;23.47;21.57;;;;;;;;;;5105916;28;20483;-75
2023/10/06 13:50:40;;;;;;;23.10;21.30;;;;;;;;;;5114764;28;20695;-75
2023/10/06 13:53:08;;;;;;;23.23;21.30;;;;;;;;;;5114574;27;20508;-74
2023/10/06 13:55:36;;;;;;;23.30;21.60;;;;;;;;;;5114076;28;20444;-75
2023/10/06 13:58:04;;;;;;;22.60;21.10;;;;;;;;;;5114405;28;20435;-75
2023/10/06 14:00:35;;;;;;;23.73;21.50;;;;;;;;;;5114579;28;20458;-76
2023/10/06 14:03:03;;;;;;;22.87;21.30;;;;;;;;;;5114414;28;20462;-75
2023/10/06 14:05:33;;;;;;;23.40;21.80;;;;;;;;;;5113795;28;20504;-75
2023/10/06 14:08:00;;;;;;;22.60;21.00;;;;;;;;;;5114464;28;20566;-75
2023/10/06 14:10:29;;;;;;;22.87;21.23;;;;;;;;;;5114267;28;20456;-75
2023/10/06 14:13:00;;;;;;;23.50;21.60;;;;;;;;;;5114236;28;20448;-76
2023/10/06 14:15:40;;;;;;;24.27;22.30;;;;;;;;;;5113533;28;20440;-75
2023/10/06 14:18:08;;;;;;;22.80;21.10;;;;;;;;;;5113689;28;20463;-75
2023/10/06 14:20:36;;;;;;;23.70;22.00;;;;;;;;;;5114127;28;20460;-74
2023/10/06 14:23:03;;;;;;;23.07;21.43;;;;;;;;;;5113477;28;20982;-75
2023/10/06 14:25:33;;;;;;;23.70;21.90;;;;;;;;;;5113397;28;20458;-76
2023/10/06 14:28:00;;;;;;;23.40;21.43;;;;;;;;;;5113256;28;20464;-75
2023/10/06 14:30:28;;;;;;;23.57;21.73;;;;;;;;;;5113611;28;20466;-75
2023/10/06 14:33:15;;;;;;;23.93;22.10;;;;;;;;;;5113836;28;20475;-74
2023/10/06 14:35:50;;;;;;;23.67;21.63;;;;;;;;;;5113230;28;20787;-74